createdAt,value
2022-08-04T00:02:03.977Z,100551.16
2022-08-04T00:05:17.304Z,100548.19
2022-08-04T00:08:46.598Z,100547.69
2022-08-04T00:11:53.336Z,100551.88
2022-08-04T00:14:59.207Z,100549.16
2022-08-04T00:18:09.987Z,100542.72
2022-08-04T00:21:15.255Z,100537.44
2022-08-04T00:24:21.259Z,100543.97
2022-08-04T00:27:24.011Z,100542.53
2022-08-04T00:30:28.302Z,100547.09
2022-08-04T00:33:32.396Z,100549.00
2022-08-04T00:36:35.273Z,100546.72
2022-08-04T00:39:40.108Z,100547.09
2022-08-04T00:42:59.207Z,100551.22
2022-08-04T00:46:36.152Z,100557.72
2022-08-04T00:49:46.254Z,100559.41
2022-08-04T00:53:15.276Z,100558.47
2022-08-04T00:56:36.829Z,100561.00
2022-08-04T01:00:12.060Z,100566.03
2022-08-04T01:03:27.877Z,100560.88
2022-08-04T01:06:39.471Z,100562.69
2022-08-04T01:10:12.091Z,100561.84
2022-08-04T01:13:29.483Z,100558.75
2022-08-04T01:16:42.346Z,100559.72
2022-08-04T01:20:14.092Z,100555.28
2022-08-04T01:23:35.703Z,100562.09
2022-08-04T01:26:57.874Z,100568.13
2022-08-04T01:30:01.868Z,100557.84
2022-08-04T01:33:09.629Z,100555.56
2022-08-04T01:36:13.078Z,100566.50
2022-08-04T01:39:34.454Z,100566.91
2022-08-04T01:42:37.630Z,100571.84
2022-08-04T01:45:41.814Z,100565.72
2022-08-04T01:48:47.097Z,100562.63
2022-08-04T01:51:52.278Z,100565.75
2022-08-04T01:54:55.852Z,100555.59
2022-08-04T01:58:00.744Z,100564.22
2022-08-04T02:01:12.209Z,100564.09
2022-08-04T02:04:21.273Z,100557.59
2022-08-04T02:07:44.433Z,100567.62
2022-08-04T02:11:04.838Z,100559.88
2022-08-04T02:14:36.344Z,100555.44
2022-08-04T02:17:51.089Z,100553.72
2022-08-04T02:21:03.321Z,100552.16
2022-08-04T02:24:08.479Z,100553.13
2022-08-04T02:27:13.694Z,100551.31
2022-08-04T02:30:19.134Z,100552.16
2022-08-04T02:33:26.749Z,100551.97
2022-08-04T02:36:40.578Z,100551.50
2022-08-04T02:39:49.149Z,100551.03
2022-08-04T02:42:57.541Z,100552.84
2022-08-04T02:46:02.112Z,100557.53
2022-08-04T02:49:07.684Z,100551.63
2022-08-04T02:52:12.629Z,100559.41
2022-08-04T02:55:17.480Z,100551.38
2022-08-04T02:58:21.332Z,100547.88
2022-08-04T03:01:24.939Z,100535.19
2022-08-04T03:04:44.404Z,100546.84
2022-08-04T03:08:15.066Z,100542.66
2022-08-04T03:11:39.025Z,100549.28
2022-08-04T03:15:03.010Z,100552.97
2022-08-04T03:18:36.921Z,100549.63
2022-08-04T03:21:45.363Z,100548.06
2022-08-04T03:25:00.106Z,100552.75
2022-08-04T03:28:33.356Z,100547.59
2022-08-04T03:31:48.314Z,100557.56
2022-08-04T03:35:13.657Z,100554.53
2022-08-04T03:39:12.673Z,100558.28
2022-08-04T03:42:37.157Z,100556.16
2022-08-04T03:46:06.604Z,100557.44
2022-08-04T03:49:21.218Z,100558.44
2022-08-04T03:53:10.180Z,100562.37
2022-08-04T03:56:24.748Z,100553.97
2022-08-04T03:59:47.957Z,100562.06
2022-08-04T04:03:10.119Z,100565.09
2022-08-04T04:06:31.129Z,100564.97
2022-08-04T04:10:01.201Z,100564.47
2022-08-04T04:13:48.063Z,100565.19
2022-08-04T04:17:38.616Z,100570.13
2022-08-04T04:21:13.029Z,100565.66
2022-08-04T04:24:38.553Z,100572.09
2022-08-04T04:28:45.653Z,100575.78
2022-08-04T04:32:03.689Z,100576.03
2022-08-04T04:35:12.356Z,100580.19
2022-08-04T04:38:41.569Z,100575.63
2022-08-04T04:42:05.358Z,100577.44
2022-08-04T04:45:28.885Z,100587.09
2022-08-04T04:48:58.776Z,100583.47
2022-08-04T04:52:13.435Z,100585.81
2022-08-04T04:55:19.033Z,100589.72
2022-08-04T04:58:22.671Z,100583.03
2022-08-04T05:01:40.693Z,100591.97
2022-08-04T05:04:52.286Z,100592.28
2022-08-04T05:08:43.163Z,100580.75
2022-08-04T05:11:40.152Z,100591.31
2022-08-04T05:14:48.429Z,100594.38
2022-08-04T05:17:53.101Z,100595.22
2022-08-04T05:21:01.350Z,100596.87
2022-08-04T05:24:06.284Z,100599.84
2022-08-04T05:27:17.057Z,100604.84
2022-08-04T05:30:20.498Z,100605.38
2022-08-04T05:33:31.439Z,100608.12
2022-08-04T05:36:44.018Z,100604.22
2022-08-04T05:39:53.382Z,100607.59
2022-08-04T05:42:58.197Z,100609.00
2022-08-04T05:46:01.814Z,100613.84
2022-08-04T05:49:05.528Z,100612.22
2022-08-04T05:52:10.388Z,100618.31
2022-08-04T05:55:17.029Z,100617.91
2022-08-04T05:58:37.294Z,100621.84
2022-08-04T06:01:56.261Z,100613.69
2022-08-04T06:05:01.905Z,100619.44
2022-08-04T06:08:13.649Z,100620.47
2022-08-04T06:11:19.138Z,100620.75
2022-08-04T06:14:24.099Z,100622.53
2022-08-04T06:19:56.528Z,100623.44
2022-08-04T06:20:58.592Z,100623.47
2022-08-04T06:24:04.845Z,100622.47
2022-08-04T06:27:08.756Z,100617.84
2022-08-04T06:30:14.574Z,100618.41
2022-08-04T06:33:33.071Z,100622.97
2022-08-04T06:36:58.353Z,100628.81
2022-08-04T06:40:29.246Z,100619.84
2022-08-04T06:43:27.781Z,100623.56
2022-08-04T06:46:34.218Z,100625.00
2022-08-04T06:49:55.112Z,100611.56
2022-08-04T06:53:01.438Z,100612.41
2022-08-04T06:56:04.920Z,100607.06
2022-08-04T06:59:08.785Z,100616.09
2022-08-04T07:02:15.592Z,100618.44
2022-08-04T07:05:19.766Z,100613.97
2022-08-04T07:08:23.021Z,100612.44
2022-08-04T07:11:27.386Z,100614.75
2022-08-04T07:14:31.879Z,100615.56
2022-08-04T07:17:38.223Z,100608.06
2022-08-04T07:20:43.050Z,100607.22
2022-08-04T07:23:45.924Z,100609.41
2022-08-04T07:26:51.901Z,100613.72
2022-08-04T07:29:54.984Z,100608.19
2022-08-04T07:32:58.532Z,100604.59
2022-08-04T07:36:04.820Z,100604.69
2022-08-04T07:39:27.396Z,100595.94
2022-08-04T07:42:31.970Z,100600.56
2022-08-04T07:45:35.160Z,100601.31
2022-08-04T07:48:38.840Z,100596.50
2022-08-04T07:51:41.673Z,100590.44
2022-08-04T07:54:45.008Z,100591.38
2022-08-04T07:57:48.210Z,100592.31
2022-08-04T08:00:51.863Z,100587.03
2022-08-04T08:03:57.668Z,100586.03
2022-08-04T08:07:00.421Z,100581.25
2022-08-04T08:10:03.675Z,100578.53
2022-08-04T08:13:07.458Z,100583.59
2022-08-04T08:16:11.652Z,100576.59
2022-08-04T08:19:14.521Z,100582.19
2022-08-04T08:22:17.544Z,100582.22
2022-08-04T08:25:20.327Z,100580.97
2022-08-04T08:28:24.035Z,100577.56
2022-08-04T08:31:56.163Z,100578.09
2022-08-04T08:34:49.889Z,100588.53
2022-08-04T08:38:00.375Z,100578.47
2022-08-04T08:41:32.805Z,100585.22
2022-08-04T08:44:58.109Z,100583.28
2022-08-04T08:48:28.667Z,100582.25
2022-08-04T08:52:00.647Z,100582.59
2022-08-04T08:55:41.342Z,100586.69
2022-08-04T08:59:18.251Z,100577.44
2022-08-04T09:02:39.520Z,100579.69
2022-08-04T09:05:57.706Z,100575.94
2022-08-04T09:09:19.305Z,100579.34
2022-08-04T09:12:54.833Z,100578.91
2022-08-04T09:16:08.904Z,100575.69
2022-08-04T09:19:37.874Z,100569.34
2022-08-04T09:22:58.523Z,100573.56
2022-08-04T09:26:59.740Z,100569.72
2022-08-04T09:30:05.585Z,100566.06
2022-08-04T09:33:44.338Z,100565.97
2022-08-04T09:37:02.676Z,100570.06
2022-08-04T09:40:53.606Z,100556.84
2022-08-04T09:44:50.181Z,100563.97
2022-08-04T09:47:59.302Z,100563.31
2022-08-04T09:51:14.850Z,100558.03
2022-08-04T09:54:30.988Z,100553.56
2022-08-04T09:57:50.075Z,100548.06
2022-08-04T10:01:01.099Z,100555.34
2022-08-04T10:04:09.965Z,100541.84
2022-08-04T10:07:29.724Z,100544.63
2022-08-04T10:10:47.203Z,100545.69
2022-08-04T10:13:59.678Z,100528.56
2022-08-04T10:17:20.658Z,100527.88
2022-08-04T10:20:54.083Z,100528.75
2022-08-04T10:24:11.563Z,100521.50
2022-08-04T10:27:36.741Z,100520.47
2022-08-04T10:30:45.610Z,100520.91
2022-08-04T10:34:12.179Z,100520.91
2022-08-04T10:37:23.454Z,100528.59
2022-08-04T10:40:59.097Z,100517.44
2022-08-04T10:44:42.549Z,100509.78
2022-08-04T10:48:07.470Z,100512.22
2022-08-04T10:51:58.876Z,100504.53
2022-08-04T10:55:19.179Z,100499.16
2022-08-04T10:58:47.117Z,100501.84
2022-08-04T11:02:01.786Z,100491.53
2022-08-04T11:05:30.872Z,100489.47
2022-08-04T11:08:40.217Z,100486.56
2022-08-04T11:12:09.936Z,100491.13
2022-08-04T11:15:20.867Z,100491.25
2022-08-04T11:18:53.777Z,100489.06
2022-08-04T11:22:00.278Z,100485.53
2022-08-04T11:25:19.324Z,100485.44
2022-08-04T11:28:24.809Z,100482.41
2022-08-04T11:31:32.430Z,100482.81
2022-08-04T11:34:36.119Z,100480.53
2022-08-04T11:37:48.269Z,100477.84
2022-08-04T11:41:02.711Z,100479.28
2022-08-04T11:44:12.514Z,100474.37
2022-08-04T11:47:22.084Z,100470.06
2022-08-04T11:50:34.871Z,100461.94
2022-08-04T11:53:39.914Z,100464.03
2022-08-04T11:56:43.073Z,100467.69
2022-08-04T11:59:49.056Z,100456.72
2022-08-04T12:03:00.670Z,100450.63
2022-08-04T12:06:29.256Z,100445.84
2022-08-04T12:09:57.287Z,100433.22
2022-08-04T12:13:13.331Z,100434.22
2022-08-04T12:16:22.321Z,100432.41
2022-08-04T12:19:58.694Z,100428.25
2022-08-04T12:22:56.262Z,100426.84
2022-08-04T12:26:06.199Z,100421.91
2022-08-04T12:29:15.150Z,100422.69
2022-08-04T12:32:26.556Z,100416.44
2022-08-04T12:35:40.049Z,100419.25
2022-08-04T12:39:10.496Z,100413.56
2022-08-04T12:42:28.224Z,100408.56
2022-08-04T12:45:32.342Z,100411.44
2022-08-04T12:48:37.133Z,100414.13
2022-08-04T12:52:07.900Z,100401.06
2022-08-04T12:55:12.133Z,100402.00
2022-08-04T12:58:43.425Z,100394.22
2022-08-04T13:02:08.509Z,100391.16
2022-08-04T13:05:17.172Z,100396.16
2022-08-04T13:08:21.097Z,100390.66
2022-08-04T13:11:24.310Z,100387.22
2022-08-04T13:14:38.311Z,100384.66
2022-08-04T13:18:14.961Z,100380.03
2022-08-04T13:22:01.747Z,100383.03
2022-08-04T13:24:56.363Z,100373.56
2022-08-04T13:28:20.615Z,100373.31
2022-08-04T13:31:27.457Z,100374.91
2022-08-04T13:34:42.788Z,100367.66
2022-08-04T13:37:53.053Z,100371.94
2022-08-04T13:41:04.683Z,100373.97
2022-08-04T13:44:17.605Z,100361.03
2022-08-04T13:47:25.882Z,100361.72
2022-08-04T13:50:32.270Z,100354.03
2022-08-04T13:53:36.939Z,100353.88
2022-08-04T13:56:45.493Z,100346.69
2022-08-04T13:59:56.351Z,100343.31
2022-08-04T14:03:03.491Z,100342.47
2022-08-04T14:06:28.664Z,100339.34
2022-08-04T14:09:35.476Z,100331.03
2022-08-04T14:12:47.387Z,100336.56
2022-08-04T14:16:01.938Z,100326.94
2022-08-04T14:19:07.560Z,100322.00
2022-08-04T14:22:27.480Z,100322.50
2022-08-04T14:25:30.427Z,100313.81
2022-08-04T14:29:25.375Z,100319.34
2022-08-04T14:32:12.996Z,100322.06
2022-08-04T14:35:17.318Z,100320.12
2022-08-04T14:38:20.843Z,100315.03
2022-08-04T14:41:43.604Z,100314.50
2022-08-04T14:44:54.904Z,100318.78
2022-08-04T14:47:58.029Z,100322.19
2022-08-04T14:51:01.013Z,100314.06
2022-08-04T14:54:08.225Z,100315.34
2022-08-04T14:57:16.684Z,100313.94
2022-08-04T15:00:31.265Z,100313.22
2022-08-04T15:03:34.743Z,100310.97
2022-08-04T15:06:37.334Z,100310.47
2022-08-04T15:09:41.427Z,100318.03
2022-08-04T15:12:44.295Z,100312.28
2022-08-04T15:16:04.136Z,100312.88
2022-08-04T15:19:10.360Z,100312.00
2022-08-04T15:22:17.696Z,100305.94
2022-08-04T15:25:20.525Z,100309.88
2022-08-04T15:28:27.443Z,100298.84
2022-08-04T15:32:07.132Z,100302.66
2022-08-04T15:35:13.349Z,100289.09
2022-08-04T15:38:36.733Z,100290.75
2022-08-04T15:42:01.568Z,100292.84
2022-08-04T15:45:12.361Z,100291.53
2022-08-04T15:48:19.914Z,100290.25
2022-08-04T15:51:30.417Z,100291.31
2022-08-04T15:54:39.228Z,100279.47
2022-08-04T15:58:08.559Z,100279.59
2022-08-04T16:01:15.567Z,100281.63
2022-08-04T16:04:25.512Z,100280.69
2022-08-04T16:08:00.552Z,100274.13
2022-08-04T16:11:03.641Z,100278.34
2022-08-04T16:14:07.582Z,100270.72
2022-08-04T16:17:18.640Z,100270.25
2022-08-04T16:20:23.219Z,100272.25
2022-08-04T16:23:56.820Z,100262.66
2022-08-04T16:27:01.351Z,100263.94
2022-08-04T16:30:13.925Z,100262.19
2022-08-04T16:33:16.816Z,100252.75
2022-08-04T16:36:58.612Z,100245.81
2022-08-04T16:40:35.711Z,100257.13
2022-08-04T16:43:39.097Z,100258.56
2022-08-04T16:47:08.493Z,100253.63
2022-08-04T16:50:05.852Z,100252.94
2022-08-04T16:53:39.992Z,100252.78
2022-08-04T16:56:35.629Z,100253.56
2022-08-04T16:59:38.468Z,100240.56
2022-08-04T17:02:41.440Z,100245.38
2022-08-04T17:05:45.907Z,100241.09
2022-08-04T17:08:49.549Z,100247.13
2022-08-04T17:11:54.169Z,100249.94
2022-08-04T17:14:57.417Z,100255.88
2022-08-04T17:18:17.435Z,100256.41
2022-08-04T17:21:24.999Z,100255.00
2022-08-04T17:24:27.565Z,100257.97
2022-08-04T17:28:08.510Z,100258.22
2022-08-04T17:30:55.012Z,100261.37
2022-08-04T17:34:00.261Z,100259.94
2022-08-04T17:37:31.178Z,100264.50
2022-08-04T17:40:26.584Z,100263.47
2022-08-04T17:44:03.874Z,100267.19
2022-08-04T17:47:16.542Z,100260.53
2022-08-04T17:50:35.782Z,100263.81
2022-08-04T17:54:03.089Z,100260.38
2022-08-04T17:57:23.405Z,100259.09
2022-08-04T18:00:33.317Z,100265.19
2022-08-04T18:03:36.252Z,100263.81
2022-08-04T18:06:38.802Z,100264.37
2022-08-04T18:10:02.260Z,100259.97
2022-08-04T18:13:14.284Z,100266.44
2022-08-04T18:16:22.750Z,100259.47
2022-08-04T18:19:25.900Z,100260.34
2022-08-04T18:22:34.438Z,100262.66
2022-08-04T18:29:00.315Z,100274.53
2022-08-04T18:32:09.280Z,100281.94
2022-08-04T18:35:16.361Z,100284.28
2022-08-04T18:38:23.798Z,100280.44
2022-08-04T18:42:01.771Z,100290.06
2022-08-04T18:44:55.149Z,100291.94
2022-08-04T18:48:01.188Z,100293.75
2022-08-04T18:54:28.552Z,100301.53
2022-08-04T18:57:59.209Z,100302.13
2022-08-04T19:01:00.285Z,100303.22
2022-08-04T19:04:03.469Z,100307.97
2022-08-04T19:07:29.981Z,100306.56
2022-08-04T19:10:33.300Z,100314.09
2022-08-04T19:13:37.630Z,100315.34
2022-08-04T19:16:40.886Z,100322.50
2022-08-04T19:19:49.551Z,100329.50
2022-08-04T19:24:26.333Z,100320.72
2022-08-04T19:26:27.966Z,100321.28
2022-08-04T19:32:53.697Z,100327.09
2022-08-04T19:35:56.282Z,100339.94
2022-08-04T19:39:02.461Z,100333.78
2022-08-04T19:42:06.504Z,100335.50
2022-08-04T19:45:15.292Z,100326.53
2022-08-04T19:48:20.179Z,100335.03
2022-08-04T19:51:23.257Z,100345.87
2022-08-04T19:54:30.504Z,100338.56
2022-08-04T19:57:35.677Z,100341.06
2022-08-04T20:00:40.679Z,100345.53
2022-08-04T20:04:08.068Z,100349.03
2022-08-04T20:07:14.317Z,100339.91
2022-08-04T20:10:18.527Z,100354.84
2022-08-04T20:13:37.165Z,100349.56
2022-08-04T20:16:40.718Z,100352.87
2022-08-04T20:19:51.008Z,100345.87
2022-08-04T20:22:54.530Z,100349.03
2022-08-04T20:25:57.060Z,100344.38
2022-08-04T20:29:00.084Z,100351.69
2022-08-04T20:32:08.888Z,100351.81
2022-08-04T20:35:16.626Z,100355.44
2022-08-04T20:38:33.429Z,100349.94
2022-08-04T20:41:37.197Z,100354.06
2022-08-04T20:44:46.403Z,100355.75
2022-08-04T20:47:53.038Z,100362.69
2022-08-04T20:50:56.409Z,100361.16
2022-08-04T20:54:01.496Z,100356.38
2022-08-04T20:57:04.196Z,100359.69
2022-08-04T21:00:10.329Z,100357.81
2022-08-04T21:03:16.128Z,100364.91
2022-08-04T21:06:19.053Z,100364.72
2022-08-04T21:09:26.647Z,100361.84
2022-08-04T21:12:41.478Z,100372.09
2022-08-04T21:15:58.887Z,100367.13
2022-08-04T21:22:29.769Z,100373.19
2022-08-04T21:25:43.511Z,100377.94
2022-08-04T21:28:47.146Z,100379.84
2022-08-04T21:31:51.126Z,100380.34
2022-08-04T21:34:57.713Z,100377.66
2022-08-04T21:38:01.372Z,100379.56
2022-08-04T21:41:05.783Z,100388.81
2022-08-04T21:44:09.155Z,100393.78
2022-08-04T21:47:23.305Z,100396.56
2022-08-04T21:50:30.601Z,100399.16
2022-08-04T21:53:33.365Z,100402.28
2022-08-04T21:56:36.593Z,100400.94
2022-08-04T21:59:45.049Z,100411.22
2022-08-04T22:02:53.192Z,100404.06
2022-08-04T22:05:56.937Z,100404.62
2022-08-04T22:08:59.623Z,100403.56
2022-08-04T22:12:04.050Z,100408.66
2022-08-04T22:15:24.144Z,100406.97
2022-08-04T22:18:31.758Z,100410.22
2022-08-04T22:21:39.075Z,100408.72
2022-08-04T22:24:47.843Z,100411.53
2022-08-04T22:28:07.663Z,100422.59
2022-08-04T22:31:24.218Z,100425.16
2022-08-04T22:34:27.908Z,100426.25
2022-08-04T22:37:35.839Z,100425.22
2022-08-04T22:40:47.560Z,100417.88
2022-08-04T22:43:54.976Z,100423.31
2022-08-04T22:46:57.768Z,100422.75
2022-08-04T22:50:26.551Z,100421.53
2022-08-04T22:53:25.120Z,100417.81
2022-08-04T22:56:37.779Z,100414.31
2022-08-04T22:59:43.399Z,100400.97
2022-08-04T23:02:46.293Z,100416.09
2022-08-04T23:05:51.161Z,100414.41
2022-08-04T23:08:54.162Z,100406.81
2022-08-04T23:12:15.202Z,100405.00
2022-08-04T23:15:19.617Z,100404.28
2022-08-04T23:18:24.015Z,100407.84
2022-08-04T23:21:30.148Z,100407.28
2022-08-04T23:24:44.065Z,100399.19
2022-08-04T23:27:52.303Z,100401.12
2022-08-04T23:30:57.767Z,100405.06
2022-08-04T23:34:00.906Z,100401.31
2022-08-04T23:37:03.428Z,100404.28
2022-08-04T23:40:30.176Z,100402.91
2022-08-04T23:43:49.268Z,100404.00
2022-08-04T23:46:57.758Z,100406.91
2022-08-04T23:50:00.619Z,100401.91
2022-08-04T23:53:03.434Z,100407.63
2022-08-04T23:56:19.463Z,100411.13
2022-08-04T23:59:52.213Z,100410.47
